• Join FlightAware (Why Join?)
  • Login
  • US Flag GB Flag 
09:58 EDT


 

Airport Tracker/Info


-or-


 

Live Flight TrackerFlight Track Log ✈ PDT4458 ✈ 07-May-2013 ✈ KPHL - KLGA

Flight Track Log - Related Links

Times and Time Zones

All times are in EDT time to prevent confusion due to time zone crossing. See the PDT4458 flight status page for this flight to view local times or setup timezone preferences in your user account.

Time Position Orientation Groundspeed Altitude Reporting Facility
EDT Latitude Longitude Course Direction KTS MPH feet Rate Location/Type
17:03 39.8833 -75.2167 90° East 106 122 500  Level Philadelphia TRACON
17:04 39.8833 -75.1833 90° East 125 144 1,300 1,260 Climbing Philadelphia TRACON
17:05 39.8667 -75.1167 108° East 131 151 2,800 1,080 Climbing Philadelphia TRACON
17:06 39.8667 -75.0833 90° East 132 152 3,700 900 Climbing Philadelphia TRACON
17:07 39.8667 -75.0333 90° East 149 171 4,500 960 Climbing Philadelphia TRACON
17:08 39.8833 -74.9833 67° East 153 176 5,700 960 Climbing Philadelphia TRACON
17:09 39.9000 -74.9333 67° East 165 190 6,500 900 Climbing Philadelphia TRACON
17:10 39.9500 -74.8667 46° Northeast 165 190 8,000 600 Climbing New York TRACON
17:11 39.9833 -74.8000 57° Northeast 195 224 8,100  Climbing New York TRACON
17:12 40.0167 -74.7500 49° Northeast 218 251 8,000 -60 Descending New York TRACON
17:13 40.0667 -74.6833 46° Northeast 228 262 8,000  Level New York TRACON
17:14 40.1167 -74.6333 37° Northeast 225 259 8,000  Level New York TRACON
17:15 40.1500 -74.5667 57° Northeast 229 264 8,000  Level New York TRACON
17:16 40.2000 -74.5000 46° Northeast 230 265 8,000  Level New York TRACON
17:17 40.2333 -74.4500 49° Northeast 233 268 8,000 -240 Level New York TRACON
17:18 40.2833 -74.3833 45° Northeast 241 277 7,600 -540 Descending New York TRACON
17:19 40.3333 -74.3167 45° Northeast 251 289 7,000 -300 Descending New York TRACON
17:20 40.3833 -74.2500 45° Northeast 243 280 7,000  Level New York TRACON
17:21 40.4500 -74.2000 30° Northeast 242 278 7,000 -300 Level New York TRACON
17:22 40.5000 -74.1500 37° Northeast 242 278 6,400 -1,020 Descending New York TRACON
17:23 40.5500 -74.1167 27° Northeast 223 257 5,100 -720 Descending New York TRACON
17:24 40.6167 -74.1000 11° North 230 265 5,000 -120 Descending New York TRACON
17:25 40.6833 -74.0667 21° North 235 270 4,900 -480 Descending New York TRACON
17:26 40.7333 -74.0333 27° Northeast 243 280 4,100 -480 Descending New York TRACON
17:27 40.7833 -74.0000 27° Northeast 232 267 4,000 -60 Descending New York TRACON
17:28 40.8500 -73.9500 30° Northeast 222 255 4,000 -60 Level New York TRACON
17:29 40.8833 -73.9000 49° Northeast 223 257 3,900 -660 Descending New York TRACON
17:30 40.9000 -73.8333 72° East 238 274 2,800 -1,200 Descending New York TRACON
17:31 40.8500 -73.8167 166° South 205 236 1,700 -960 Descending New York TRACON
17:32 40.8167 -73.8500 217° Southwest 137 158 900 -780 Descending New York TRACON
17:34 40.7772 -73.8726 204° Southwest  Level Estimated
17:41 40.7772 -73.8726 204° Southwest  Level Estimated
17:42 40.7772 -73.8726 204° Southwest  Level Estimated